Time;durP1;ratioP1;P1;durP2;ratioP2;P2;SDS_P1;SDS_P2;PMS_P1;PMS_P2;Temp;Humidity;BMP_temperature;BMP_pressure;BME280_temperature;BME280_humidity;BME280_pressure;Samples;Min_cycle;Max_cycle;Signal;HPM_P1;HPM_P2
2024/01/09 00:02:20;;;;;;;;;;;;;;;;;;5056132;28;19932;-86
2024/01/09 00:04:46;;;;;;;;;;;;;;;;;;5035875;28;20389;-86
2024/01/09 00:07:12;;;;;;;;;;;;;;;;;;5051478;28;20416;-87
2024/01/09 00:09:38;;;;;;;;;;;;;;;;;;5054607;28;19924;-85
2024/01/09 00:12:04;;;;;;;;;;;;;;;;;;5039966;28;19929;-86
2024/01/09 00:14:30;;;;;;;;;;;;;;;;;;5034587;28;19931;-87
2024/01/09 00:16:56;;;;;;;;;;;;;;;;;;5048737;28;19929;-86
2024/01/09 00:19:22;;;;;;;;;;;;;;;;;;5025134;28;19925;-86
2024/01/09 00:21:48;;;;;;;;;;;;;;;;;;5036437;28;19924;-86
2024/01/09 00:24:14;;;;;;;;;;;;;;;;;;5034585;28;19925;-86
2024/01/09 00:26:40;;;;;;;;;;;;;;;;;;5050909;28;19929;-86
2024/01/09 00:29:06;;;;;;;;;;;;;;;;;;5043690;28;19932;-86
2024/01/09 00:31:32;;;;;;;;;;;;;;;;;;5034168;28;19929;-86
2024/01/09 00:33:58;;;;;;;;;;;;;;;;;;5030979;28;19947;-87
2024/01/09 00:36:24;;;;;;;;;;;;;;;;;;5024064;28;19967;-87
2024/01/09 00:38:50;;;;;;;;;;;;;;;;;;5038247;28;19994;-85
2024/01/09 00:41:16;;;;;;;;;;;;;;;;;;5020820;28;20394;-87
2024/01/09 00:43:42;;;;;;;;;;;;;;;;;;5046892;28;20293;-85
2024/01/09 00:46:08;;;;;;;;;;;;;;;;;;5040968;28;19932;-86
2024/01/09 00:48:34;;;;;;;;;;;;;;;;;;5054298;28;20281;-85
2024/01/09 00:51:00;;;;;;;;;;;;;;;;;;5033743;28;19993;-86
2024/01/09 00:53:26;;;;;;;;;;;;;;;;;;5042897;28;19964;-86
2024/01/09 00:55:52;;;;;;;;;;;;;;;;;;5040055;28;19932;-86
2024/01/09 00:58:18;;;;;;;;;;;;;;;;;;5045981;28;19925;-86
2024/01/09 01:00:43;;;;;;;;;;;;;;;;;;5019728;28;19924;-84
2024/01/09 01:03:10;;;;;;;;;;;;;;;;;;5035231;28;19951;-86
2024/01/09 01:05:35;;;;;;;;;;;;;;;;;;5034275;28;19925;-85
2024/01/09 01:08:01;;;;;;;;;;;;;;;;;;5016824;28;20297;-83
2024/01/09 01:10:27;;;;;;;;;;;;;;;;;;5034470;28;19924;-83
2024/01/09 01:12:53;;;;;;;;;;;;;;;;;;5032294;28;20413;-83
2024/01/09 01:15:19;;;;;;;;;;;;;;;;;;5034940;28;19967;-83
2024/01/09 01:17:45;;;;;;;;;;;;;;;;;;5054016;28;19970;-81
2024/01/09 01:20:11;;;;;;;;;;;;;;;;;;5051707;28;19925;-83
2024/01/09 01:22:37;;;;;;;;;;;;;;;;;;5053567;28;20023;-83
2024/01/09 01:25:03;;;;;;;;;;;;;;;;;;5053761;28;19963;-83
2024/01/09 01:27:29;;;;;;;;;;;;;;;;;;5045248;28;19936;-83
2024/01/09 01:29:55;;;;;;;;;;;;;;;;;;5037083;28;19975;-83
2024/01/09 01:32:21;;;;;;;;;;;;;;;;;;5055852;28;20389;-83
2024/01/09 01:34:47;;;;;;;;;;;;;;;;;;5040986;28;19932;-83
2024/01/09 01:37:13;;;;;;;;;;;;;;;;;;5039641;28;19924;-82
2024/01/09 01:39:39;;;;;;;;;;;;;;;;;;5041079;28;19974;-83
2024/01/09 01:42:05;;;;;;;;;;;;;;;;;;5040318;28;19925;-82
2024/01/09 01:44:31;;;;;;;;;;;;;;;;;;5038243;28;19932;-83
2024/01/09 01:46:56;;;;;;;;;;;;;;;;;;5056905;28;19925;-83
2024/01/09 01:49:22;;;;;;;;;;;;;;;;;;5057342;28;20031;-83
2024/01/09 01:51:48;;;;;;;;;;;;;;;;;;5040009;28;19932;-83
2024/01/09 01:54:14;;;;;;;;;;;;;;;;;;5056770;28;20113;-83
2024/01/09 01:56:40;;;;;;;;;;;;;;;;;;5040085;28;19925;-82
2024/01/09 01:59:06;;;;;;;;;;;;;;;;;;5036382;28;19925;-83
2024/01/09 02:01:32;;;;;;;;;;;;;;;;;;5037265;28;19936;-83
2024/01/09 02:03:58;;;;;;;;;;;;;;;;;;5036782;28;20437;-82
2024/01/09 02:06:24;;;;;;;;;;;;;;;;;;5021720;28;19933;-83
2024/01/09 02:08:50;;;;;;;;;;;;;;;;;;5036504;28;19931;-82
2024/01/09 02:11:16;;;;;;;;;;;;;;;;;;5038140;28;19932;-82
2024/01/09 02:13:42;;;;;;;;;;;;;;;;;;5056208;28;19931;-82
2024/01/09 02:16:08;;;;;;;;;;;;;;;;;;5056325;28;19956;-82
2024/01/09 02:18:34;;;;;;;;;;;;;;;;;;5040165;28;19925;-82
2024/01/09 02:21:00;;;;;;;;;;;;;;;;;;5052977;28;19939;-82
2024/01/09 02:23:26;;;;;;;;;;;;;;;;;;5019922;28;20421;-82
2024/01/09 02:25:52;;;;;;;;;;;;;;;;;;5036488;28;20317;-82
2024/01/09 02:28:18;;;;;;;;;;;;;;;;;;5018816;28;19936;-83
2024/01/09 02:30:44;;;;;;;;;;;;;;;;;;5028423;28;19924;-82
2024/01/09 02:33:10;;;;;;;;;;;;;;;;;;5039354;28;19973;-82
2024/01/09 02:35:36;;;;;;;;;;;;;;;;;;5056488;28;19932;-82
2024/01/09 02:38:02;;;;;;;;;;;;;;;;;;5038756;28;19924;-83
2024/01/09 02:40:28;;;;;;;;;;;;;;;;;;5056022;28;19950;-82
2024/01/09 02:42:54;;;;;;;;;;;;;;;;;;5038083;28;20388;-83
2024/01/09 02:45:20;;;;;;;;;;;;;;;;;;5027976;28;19928;-82
2024/01/09 02:47:46;;;;;;;;;;;;;;;;;;5022712;28;20337;-83
2024/01/09 02:50:12;;;;;;;;;;;;;;;;;;5039204;28;19971;-83
2024/01/09 02:52:38;;;;;;;;;;;;;;;;;;5023517;28;19932;-83
2024/01/09 02:55:04;;;;;;;;;;;;;;;;;;5019278;28;19972;-83
2024/01/09 02:57:29;;;;;;;;;;;;;;;;;;5025851;28;19978;-82
2024/01/09 02:59:55;;;;;;;;;;;;;;;;;;5039345;28;19978;-83
2024/01/09 03:02:21;;;;;;;;;;;;;;;;;;5038756;28;19924;-83
2024/01/09 03:04:47;;;;;;;;;;;;;;;;;;5039455;28;19931;-83
2024/01/09 03:07:13;;;;;;;;;;;;;;;;;;5019875;28;19924;-82
2024/01/09 03:09:43;;;;;;;;;;;;;;;;;;5035875;28;19929;-82
2024/01/09 03:12:09;;;;;;;;;;;;;;;;;;5039369;28;20008;-83
2024/01/09 03:14:34;;;;;;;;;;;;;;;;;;5019445;28;20007;-83
2024/01/09 03:17:00;;;;;;;;;;;;;;;;;;5035759;28;19925;-82
2024/01/09 03:19:26;;;;;;;;;;;;;;;;;;5029499;28;19928;-82
2024/01/09 03:21:52;;;;;;;;;;;;;;;;;;5038436;28;19924;-83
2024/01/09 03:24:18;;;;;;;;;;;;;;;;;;5038370;28;20426;-82
2024/01/09 03:26:44;;;;;;;;;;;;;;;;;;5038817;28;20365;-83
2024/01/09 03:29:10;;;;;;;;;;;;;;;;;;5054089;28;19994;-82
2024/01/09 03:31:36;;;;;;;;;;;;;;;;;;5018388;28;20015;-82
2024/01/09 03:34:02;;;;;;;;;;;;;;;;;;5039289;28;19925;-81
2024/01/09 03:36:28;;;;;;;;;;;;;;;;;;5037712;28;19966;-82
2024/01/09 03:38:55;;;;;;;;;;;;;;;;;;5038564;28;19928;-82
2024/01/09 03:41:21;;;;;;;;;;;;;;;;;;5037632;28;19924;-83
2024/01/09 03:43:47;;;;;;;;;;;;;;;;;;5019803;28;19931;-83
2024/01/09 03:46:13;;;;;;;;;;;;;;;;;;5034513;28;19970;-81
2024/01/09 03:48:39;;;;;;;;;;;;;;;;;;5035081;28;19932;-81
2024/01/09 03:51:05;;;;;;;;;;;;;;;;;;5017649;28;19932;-82
2024/01/09 03:53:31;;;;;;;;;;;;;;;;;;5018181;28;20023;-82
2024/01/09 03:55:56;;;;;;;;;;;;;;;;;;5034013;28;20256;-82
2024/01/09 03:58:23;;;;;;;;;;;;;;;;;;5039051;28;19925;-82
2024/01/09 04:00:48;;;;;;;;;;;;;;;;;;5065852;28;19929;-82
2024/01/09 04:03:14;;;;;;;;;;;;;;;;;;5034090;28;20015;-82
2024/01/09 04:05:40;;;;;;;;;;;;;;;;;;5034726;28;19932;-83
2024/01/09 04:08:06;;;;;;;;;;;;;;;;;;5034181;28;19925;-82
2024/01/09 04:10:32;;;;;;;;;;;;;;;;;;5018191;28;19948;-82
2024/01/09 04:12:58;;;;;;;;;;;;;;;;;;5017192;28;19932;-82
2024/01/09 04:15:24;;;;;;;;;;;;;;;;;;5017841;28;19924;-82
2024/01/09 04:17:50;;;;;;;;;;;;;;;;;;5034719;28;20015;-82
2024/01/09 04:20:16;;;;;;;;;;;;;;;;;;5034420;28;20367;-82
2024/01/09 04:22:42;;;;;;;;;;;;;;;;;;5017723;28;19924;-82
2024/01/09 04:25:09;;;;;;;;;;;;;;;;;;5018280;28;19974;-82
2024/01/09 04:27:35;;;;;;;;;;;;;;;;;;5042705;28;19924;-82
2024/01/09 04:30:01;;;;;;;;;;;;;;;;;;5019323;28;20012;-82
2024/01/09 04:32:26;;;;;;;;;;;;;;;;;;5035824;28;19963;-82
2024/01/09 04:34:54;;;;;;;;;;;;;;;;;;5042078;28;19925;-83
2024/01/09 04:37:19;;;;;;;;;;;;;;;;;;5016953;28;19933;-83
2024/01/09 04:39:45;;;;;;;;;;;;;;;;;;5034566;28;19925;-82
2024/01/09 04:42:11;;;;;;;;;;;;;;;;;;5016475;28;19960;-81
2024/01/09 04:44:37;;;;;;;;;;;;;;;;;;5034214;28;19954;-82
2024/01/09 04:47:03;;;;;;;;;;;;;;;;;;5017826;28;19925;-82
2024/01/09 04:49:29;;;;;;;;;;;;;;;;;;5017491;28;20408;-82
2024/01/09 04:51:55;;;;;;;;;;;;;;;;;;5038352;28;20271;-83
2024/01/09 04:54:21;;;;;;;;;;;;;;;;;;5050860;28;19928;-82
2024/01/09 04:56:47;;;;;;;;;;;;;;;;;;5053345;28;19932;-83
2024/01/09 04:59:13;;;;;;;;;;;;;;;;;;5033258;28;19925;-83
2024/01/09 05:01:39;;;;;;;;;;;;;;;;;;5034021;28;19925;-83
2024/01/09 05:04:05;;;;;;;;;;;;;;;;;;5034247;28;19925;-83
2024/01/09 05:06:31;;;;;;;;;;;;;;;;;;5017715;28;19931;-82
2024/01/09 05:08:57;;;;;;;;;;;;;;;;;;5038004;28;19925;-82
2024/01/09 05:11:23;;;;;;;;;;;;;;;;;;5056811;28;19931;-82
2024/01/09 05:13:48;;;;;;;;;;;;;;;;;;5054875;28;20405;-83
2024/01/09 05:16:15;;;;;;;;;;;;;;;;;;5057955;28;20320;-82
2024/01/09 05:18:40;;;;;;;;;;;;;;;;;;5038424;28;19978;-83
2024/01/09 05:21:06;;;;;;;;;;;;;;;;;;5037699;28;19929;-82
2024/01/09 05:23:32;;;;;;;;;;;;;;;;;;5026587;28;19931;-83
2024/01/09 05:25:58;;;;;;;;;;;;;;;;;;5040814;28;20057;-83
2024/01/09 05:28:24;;;;;;;;;;;;;;;;;;5039633;28;20369;-83
2024/01/09 05:30:50;;;;;;;;;;;;;;;;;;5041200;28;20424;-83
2024/01/09 05:33:16;;;;;;;;;;;;;;;;;;5057676;28;19974;-83
2024/01/09 05:35:42;;;;;;;;;;;;;;;;;;5039097;28;19925;-83
2024/01/09 05:38:08;;;;;;;;;;;;;;;;;;5055324;28;19931;-83
2024/01/09 05:40:34;;;;;;;;;;;;;;;;;;5056678;28;19932;-82
2024/01/09 05:43:00;;;;;;;;;;;;;;;;;;5044956;28;19925;-82
2024/01/09 05:45:26;;;;;;;;;;;;;;;;;;5039681;28;19925;-82
2024/01/09 05:47:52;;;;;;;;;;;;;;;;;;5040459;28;19932;-82
2024/01/09 05:50:18;;;;;;;;;;;;;;;;;;5039248;28;19925;-83
2024/01/09 05:52:44;;;;;;;;;;;;;;;;;;5019330;28;20047;-82
2024/01/09 05:55:10;;;;;;;;;;;;;;;;;;5036824;28;19932;-83
2024/01/09 05:57:36;;;;;;;;;;;;;;;;;;5039293;28;19924;-82
2024/01/09 06:00:02;;;;;;;;;;;;;;;;;;5040300;28;19924;-83
2024/01/09 06:02:28;;;;;;;;;;;;;;;;;;5028979;28;20356;-82
2024/01/09 06:04:54;;;;;;;;;;;;;;;;;;5036961;28;20023;-82
2024/01/09 06:07:20;;;;;;;;;;;;;;;;;;5036169;28;19935;-82
2024/01/09 06:09:46;;;;;;;;;;;;;;;;;;5027087;28;20366;-82
2024/01/09 06:12:12;;;;;;;;;;;;;;;;;;5039273;28;19925;-83
2024/01/09 06:14:38;;;;;;;;;;;;;;;;;;5056445;28;20358;-83
2024/01/09 06:17:05;;;;;;;;;;;;;;;;;;5053124;28;20281;-83
2024/01/09 06:19:31;;;;;;;;;;;;;;;;;;5055381;28;19924;-83
2024/01/09 06:21:57;;;;;;;;;;;;;;;;;;5040016;28;19925;-83
2024/01/09 06:24:23;;;;;;;;;;;;;;;;;;5036704;28;19975;-83
2024/01/09 06:26:49;;;;;;;;;;;;;;;;;;5037425;28;19925;-83
2024/01/09 06:29:15;;;;;;;;;;;;;;;;;;5055719;28;19924;-84
2024/01/09 06:31:41;;;;;;;;;;;;;;;;;;5039015;28;19924;-83
2024/01/09 06:34:07;;;;;;;;;;;;;;;;;;5039918;28;19924;-83
2024/01/09 06:36:33;;;;;;;;;;;;;;;;;;5054944;28;19924;-83
2024/01/09 06:38:59;;;;;;;;;;;;;;;;;;5053618;28;19978;-82
2024/01/09 06:41:25;;;;;;;;;;;;;;;;;;5055802;28;20374;-83
2024/01/09 06:43:51;;;;;;;;;;;;;;;;;;5020060;28;19928;-83
2024/01/09 06:46:17;;;;;;;;;;;;;;;;;;5019803;28;19925;-82
2024/01/09 06:48:43;;;;;;;;;;;;;;;;;;5035742;28;19932;-82
2024/01/09 06:51:09;;;;;;;;;;;;;;;;;;5035414;28;19924;-82
2024/01/09 06:53:35;;;;;;;;;;;;;;;;;;5036675;28;20024;-81
2024/01/09 06:56:01;;;;;;;;;;;;;;;;;;5034552;28;19924;-82
2024/01/09 06:58:26;;;;;;;;;;;;;;;;;;5044581;28;20354;-81
2024/01/09 07:00:52;;;;;;;;;;;;;;;;;;5054962;28;20560;-82
2024/01/09 07:03:19;;;;;;;;;;;;;;;;;;5053116;28;20395;-82
2024/01/09 07:05:45;;;;;;;;;;;;;;;;;;5035276;28;19925;-82
2024/01/09 07:08:11;;;;;;;;;;;;;;;;;;5033799;28;20456;-82
2024/01/09 07:10:37;;;;;;;;;;;;;;;;;;5017580;28;19964;-81
2024/01/09 07:13:03;;;;;;;;;;;;;;;;;;5030279;28;19924;-82
2024/01/09 07:15:29;;;;;;;;;;;;;;;;;;5032002;28;19924;-82
2024/01/09 07:17:55;;;;;;;;;;;;;;;;;;5018693;28;20322;-82
2024/01/09 07:20:21;;;;;;;;;;;;;;;;;;5035723;28;19925;-82
2024/01/09 07:22:48;;;;;;;;;;;;;;;;;;5032855;28;20003;-81
2024/01/09 07:25:14;;;;;;;;;;;;;;;;;;5037532;28;19972;-82
2024/01/09 07:27:40;;;;;;;;;;;;;;;;;;5041268;28;19935;-82
2024/01/09 07:30:06;;;;;;;;;;;;;;;;;;5025443;28;19925;-82
2024/01/09 07:32:32;;;;;;;;;;;;;;;;;;5035017;28;19925;-82
2024/01/09 07:34:58;;;;;;;;;;;;;;;;;;5034660;28;19925;-82
2024/01/09 07:37:24;;;;;;;;;;;;;;;;;;5051304;28;20032;-82
2024/01/09 07:39:50;;;;;;;;;;;;;;;;;;5051591;28;19982;-83
2024/01/09 07:42:16;;;;;;;;;;;;;;;;;;5019133;28;19935;-82
2024/01/09 07:44:42;;;;;;;;;;;;;;;;;;5041835;28;19975;-81
2024/01/09 07:47:10;;;;;;;;;;;;;;;;;;5035383;28;19991;-68
2024/01/09 07:49:36;;;;;;;;;;;;;;;;;;5035164;28;19974;-72
2024/01/09 07:52:02;;;;;;;;;;;;;;;;;;5059894;28;20391;-68
2024/01/09 07:54:28;;;;;;;;;;;;;;;;;;5038622;28;19924;-80
2024/01/09 07:56:54;;;;;;;;;;;;;;;;;;5040076;28;19925;-81
2024/01/09 07:59:20;;;;;;;;;;;;;;;;;;5033954;28;19928;-80
2024/01/09 08:01:46;;;;;;;;;;;;;;;;;;5017261;28;19925;-81
2024/01/09 08:04:13;;;;;;;;;;;;;;;;;;5033190;28;19975;-81
2024/01/09 08:06:39;;;;;;;;;;;;;;;;;;5035634;28;19986;-81
2024/01/09 08:09:05;;;;;;;;;;;;;;;;;;5053469;28;19929;-81
2024/01/09 08:11:30;;;;;;;;;;;;;;;;;;5027998;28;20019;-81
2024/01/09 08:13:56;;;;;;;;;;;;;;;;;;5036603;28;19979;-81
2024/01/09 08:16:23;;;;;;;;;;;;;;;;;;5054807;28;19928;-81
2024/01/09 08:18:49;;;;;;;;;;;;;;;;;;5053963;28;19924;-81
2024/01/09 08:21:15;;;;;;;;;;;;;;;;;;5053868;28;19974;-81
2024/01/09 08:23:40;;;;;;;;;;;;;;;;;;5054683;28;19924;-81
2024/01/09 08:26:06;;;;;;;;;;;;;;;;;;5037460;28;20286;-81
2024/01/09 08:28:32;;;;;;;;;;;;;;;;;;5024181;28;19932;-81
2024/01/09 08:30:58;;;;;;;;;;;;;;;;;;5034315;28;20019;-81
2024/01/09 08:33:24;;;;;;;;;;;;;;;;;;5026719;28;19931;-81
2024/01/09 08:35:51;;;;;;;;;;;;;;;;;;5053396;28;19931;-80
2024/01/09 08:38:17;;;;;;;;;;;;;;;;;;5036790;28;20277;-81
2024/01/09 08:40:44;;;;;;;;;;;;;;;;;;5035518;28;20377;-81
2024/01/09 08:43:10;;;;;;;;;;;;;;;;;;5022723;28;20029;-81
2024/01/09 08:45:36;;;;;;;;;;;;;;;;;;5045486;28;20396;-77
2024/01/09 08:48:02;;;;;;;;;;;;;;;;;;5040256;28;20023;-77
2024/01/09 08:50:28;;;;;;;;;;;;;;;;;;5040781;28;20019;-77
2024/01/09 08:52:54;;;;;;;;;;;;;;;;;;5028598;28;19925;-77
2024/01/09 08:55:22;;;;;;;;;;;;;;;;;;5057945;28;19931;-77
2024/01/09 08:57:49;;;;;;;;;;;;;;;;;;5056753;28;19924;-80
2024/01/09 09:00:15;;;;;;;;;;;;;;;;;;5048960;28;19925;-80
2024/01/09 09:02:41;;;;;;;;;;;;;;;;;;5026767;28;19924;-80
2024/01/09 09:05:07;;;;;;;;;;;;;;;;;;5052499;28;19924;-80
2024/01/09 09:07:33;;;;;;;;;;;;;;;;;;5032797;28;20354;-80
2024/01/09 09:09:59;;;;;;;;;;;;;;;;;;5037150;28;19928;-80
2024/01/09 09:12:25;;;;;;;;;;;;;;;;;;5039406;28;19932;-80
2024/01/09 09:14:52;;;;;;;;;;;;;;;;;;5044462;28;19928;-80
2024/01/09 09:17:18;;;;;;;;;;;;;;;;;;5039629;28;19924;-80
2024/01/09 09:19:44;;;;;;;;;;;;;;;;;;5037244;28;19925;-80
2024/01/09 09:22:11;;;;;;;;;;;;;;;;;;5047338;28;19939;-80
2024/01/09 09:24:37;;;;;;;;;;;;;;;;;;5037411;28;19955;-80
2024/01/09 09:27:03;;;;;;;;;;;;;;;;;;5023164;28;19973;-80
2024/01/09 09:29:29;;;;;;;;;;;;;;;;;;5030704;28;20324;-80
2024/01/09 09:31:55;;;;;;;;;;;;;;;;;;5044372;28;19924;-80
2024/01/09 09:34:20;;;;;;;;;;;;;;;;;;5046627;28;19928;-80
2024/01/09 09:36:46;;;;;;;;;;;;;;;;;;5033994;28;19925;-82
2024/01/09 09:39:13;;;;;;;;;;;;;;;;;;5053003;28;20522;-81
2024/01/09 09:41:43;;;;;;;;;;;;;;;;;;5056635;28;19924;-80
2024/01/09 09:44:09;;;;;;;;;;;;;;;;;;5024376;28;19931;-80
2024/01/09 09:46:35;;;;;;;;;;;;;;;;;;5045010;28;19931;-80
2024/01/09 09:49:01;;;;;;;;;;;;;;;;;;5054293;28;19924;-79
2024/01/09 09:51:27;;;;;;;;;;;;;;;;;;5037912;28;19945;-79
2024/01/09 09:53:53;;;;;;;;;;;;;;;;;;5037544;28;20286;-82
2024/01/09 09:56:19;;;;;;;;;;;;;;;;;;5042676;28;19929;-83
2024/01/09 09:58:45;;;;;;;;;;;;;;;;;;5071342;28;19971;-82
2024/01/09 10:01:11;;;;;;;;;;;;;;;;;;5036524;28;19925;-81
2024/01/09 10:03:37;;;;;;;;;;;;;;;;;;5038835;28;19963;-79
2024/01/09 10:06:04;;;;;;;;;;;;;;;;;;5044981;28;19951;-82
2024/01/09 10:08:30;;;;;;;;;;;;;;;;;;5045639;28;19929;-84
2024/01/09 10:10:56;;;;;;;;;;;;;;;;;;5045957;28;19924;-78
2024/01/09 10:13:22;;;;;;;;;;;;;;;;;;5018861;28;19948;-77
2024/01/09 10:15:48;;;;;;;;;;;;;;;;;;5025293;28;19929;-77
2024/01/09 10:18:14;;;;;;;;;;;;;;;;;;5046802;28;20263;-81
2024/01/09 10:20:40;;;;;;;;;;;;;;;;;;5036764;28;19964;-81
2024/01/09 10:23:06;;;;;;;;;;;;;;;;;;5051173;28;19925;-77
2024/01/09 10:25:32;;;;;;;;;;;;;;;;;;5036755;28;19932;-77
2024/01/09 10:27:58;;;;;;;;;;;;;;;;;;5048673;28;19925;-77
2024/01/09 10:30:24;;;;;;;;;;;;;;;;;;5023621;28;19931;-77
2024/01/09 10:32:50;;;;;;;;;;;;;;;;;;5045601;28;19928;-77
2024/01/09 10:35:16;;;;;;;;;;;;;;;;;;5035884;28;19972;-76
2024/01/09 10:37:44;;;;;;;;;;;;;;;;;;5044807;28;19924;-77
2024/01/09 10:40:09;;;;;;;;;;;;;;;;;;5042600;28;19932;-83
2024/01/09 10:42:36;;;;;;;;;;;;;;;;;;5042387;28;19928;-82
2024/01/09 10:45:02;;;;;;;;;;;;;;;;;;5043796;28;20365;-71
2024/01/09 10:47:29;;;;;;;;;;;;;;;;;;5058220;28;19925;-83
2024/01/09 10:49:55;;;;;;;;;;;;;;;;;;5045408;28;19933;-80
2024/01/09 10:52:21;;;;;;;;;;;;;;;;;;5044075;28;20491;-80
2024/01/09 10:54:47;;;;;;;;;;;;;;;;;;5042663;28;20299;-86
2024/01/09 10:57:13;;;;;;;;;;;;;;;;;;5021583;28;19925;-85
2024/01/09 10:59:40;;;;;;;;;;;;;;;;;;5036063;28;20290;-85
2024/01/09 11:02:06;;;;;;;;;;;;;;;;;;5054507;28;19925;-81
2024/01/09 11:04:32;;;;;;;;;;;;;;;;;;5045231;28;19948;-86
2024/01/09 11:06:58;;;;;;;;;;;;;;;;;;5037770;28;19928;-85
2024/01/09 11:09:24;;;;;;;;;;;;;;;;;;5033108;28;19921;-86
2024/01/09 11:11:50;;;;;;;;;;;;;;;;;;5024733;28;19929;-86
2024/01/09 11:14:16;;;;;;;;;;;;;;;;;;5041140;28;20018;-86
2024/01/09 11:16:42;;;;;;;;;;;;;;;;;;5026038;28;20015;-85
2024/01/09 11:19:08;;;;;;;;;;;;;;;;;;5046793;28;19933;-84
2024/01/09 11:21:34;;;;;;;;;;;;;;;;;;5041630;28;20447;-84
2024/01/09 11:24:00;;;;;;;;;;;;;;;;;;5049759;28;19929;-87
2024/01/09 11:26:27;;;;;;;;;;;;;;;;;;5052236;28;20753;-86
2024/01/09 11:28:53;;;;;;;;;;;;;;;;;;5036006;28;19967;-85
2024/01/09 11:31:23;;;;;;;;;;;;;;;;;;5033402;28;19960;-86
2024/01/09 11:33:49;;;;;;;;;;;;;;;;;;5036710;28;20571;-85
2024/01/09 11:36:15;;;;;;;;;;;;;;;;;;5035268;28;19929;-85
2024/01/09 11:38:41;;;;;;;;;;;;;;;;;;5033330;28;20423;-86
2024/01/09 11:41:07;;;;;;;;;;;;;;;;;;5036686;28;19929;-84
2024/01/09 11:43:33;;;;;;;;;;;;;;;;;;5048303;28;19952;-86
2024/01/09 11:45:59;;;;;;;;;;;;;;;;;;5037341;28;20370;-84
2024/01/09 11:48:25;;;;;;;;;;;;;;;;;;5024088;28;19960;-84
2024/01/09 11:50:51;;;;;;;;;;;;;;;;;;5041021;28;19929;-85
2024/01/09 11:53:17;;;;;;;;;;;;;;;;;;5038258;28;19928;-85
2024/01/09 11:55:42;;;;;;;;;;;;;;;;;;5035353;28;20021;-86
2024/01/09 11:58:08;;;;;;;;;;;;;;;;;;5021207;28;19925;-84
2024/01/09 12:00:34;;;;;;;;;;;;;;;;;;5025911;28;19932;-87
2024/01/09 12:03:00;;;;;;;;;;;;;;;;;;5032641;28;20027;-87
2024/01/09 12:05:26;;;;;;;;;;;;;;;;;;5031660;28;19925;-86
2024/01/09 12:07:52;;;;;;;;;;;;;;;;;;5050438;28;19984;-87
2024/01/09 12:10:18;;;;;;;;;;;;;;;;;;5033211;28;19936;-87
2024/01/09 12:12:44;;;;;;;;;;;;;;;;;;5031690;28;19929;-88
2024/01/09 12:15:10;;;;;;;;;;;;;;;;;;5048449;28;20019;-85
2024/01/09 12:17:37;;;;;;;;;;;;;;;;;;5051618;28;20003;-87
2024/01/09 12:20:03;;;;;;;;;;;;;;;;;;5036329;28;20027;-87
2024/01/09 12:22:33;;;;;;;;;;;;;;;;;;5051141;28;20015;-88
2024/01/09 12:24:59;;;;;;;;;;;;;;;;;;5051586;28;20029;-89
2024/01/09 12:27:25;;;;;;;;;;;;;;;;;;5033133;28;19936;-89
2024/01/09 12:29:51;;;;;;;;;;;;;;;;;;5030520;28;20787;-88
2024/01/09 12:32:17;;;;;;;;;;;;;;;;;;5031977;28;19932;-86
2024/01/09 12:34:43;;;;;;;;;;;;;;;;;;5032346;28;19928;-91
2024/01/09 12:37:09;;;;;;;;;;;;;;;;;;5053228;28;20050;-86
2024/01/09 12:39:35;;;;;;;;;;;;;;;;;;5035170;28;19932;-92
2024/01/09 12:42:01;;;;;;;;;;;;;;;;;;5032768;28;19929;-88
2024/01/09 12:44:27;;;;;;;;;;;;;;;;;;5048341;28;21209;-92
2024/01/09 12:46:53;;;;;;;;;;;;;;;;;;5053571;28;19928;-92
2024/01/09 12:49:20;;;;;;;;;;;;;;;;;;5035639;28;19932;-90
2024/01/09 12:51:46;;;;;;;;;;;;;;;;;;5032771;28;19925;-91
2024/01/09 12:54:11;;;;;;;;;;;;;;;;;;5028111;28;19931;-92
2024/01/09 12:56:38;;;;;;;;;;;;;;;;;;5033138;28;20061;-92
2024/01/09 12:59:04;;;;;;;;;;;;;;;;;;5029361;28;20370;-91
2024/01/09 13:01:30;;;;;;;;;;;;;;;;;;5039901;28;19936;-92
2024/01/09 13:03:56;;;;;;;;;;;;;;;;;;5052852;28;20382;-92
2024/01/09 13:06:22;;;;;;;;;;;;;;;;;;5019647;28;20412;-93
2024/01/09 13:08:48;;;;;;;;;;;;;;;;;;5033619;28;19929;-92
2024/01/09 13:11:14;;;;;;;;;;;;;;;;;;5045570;28;19932;-92
2024/01/09 13:13:40;;;;;;;;;;;;;;;;;;5046148;28;19936;-93
2024/01/09 13:16:06;;;;;;;;;;;;;;;;;;5050395;28;19979;-92
2024/01/09 13:18:33;;;;;;;;;;;;;;;;;;5051878;28;19928;-93
2024/01/09 13:20:59;;;;;;;;;;;;;;;;;;5052922;28;19949;-93
2024/01/09 13:23:25;;;;;;;;;;;;;;;;;;5051239;28;20366;-92
2024/01/09 13:25:51;;;;;;;;;;;;;;;;;;5040358;28;20434;-93
2024/01/09 13:28:17;;;;;;;;;;;;;;;;;;5054285;28;19928;-91
2024/01/09 13:30:43;;;;;;;;;;;;;;;;;;5036583;28;19998;-90
2024/01/09 13:33:09;;;;;;;;;;;;;;;;;;5050616;28;19925;-93
2024/01/09 13:35:36;;;;;;;;;;;;;;;;;;5056414;28;19939;-93
2024/01/09 13:38:05;;;;;;;;;;;;;;;;;;5055947;28;19950;-93
2024/01/09 13:40:31;;;;;;;;;;;;;;;;;;5056112;28;19929;-93
2024/01/09 13:42:57;;;;;;;;;;;;;;;;;;5038040;28;20290;-93
2024/01/09 13:45:23;;;;;;;;;;;;;;;;;;5037179;28;19931;-87
2024/01/09 13:47:50;;;;;;;;;;;;;;;;;;5019888;28;19929;-93
2024/01/09 13:50:16;;;;;;;;;;;;;;;;;;5036980;28;20029;-93
2024/01/09 13:52:42;;;;;;;;;;;;;;;;;;5018553;28;20377;-93
2024/01/09 13:55:09;;;;;;;;;;;;;;;;;;5037131;28;19951;-87
2024/01/09 13:57:35;;;;;;;;;;;;;;;;;;5037792;28;20348;-91
2024/01/09 14:00:04;;;;;;;;;;;;;;;;;;5054644;28;19991;-84
2024/01/09 14:02:30;;;;;;;;;;;;;;;;;;5038933;28;19932;-89
2024/01/09 14:04:56;;;;;;;;;;;;;;;;;;5034677;28;20007;-92
2024/01/09 14:07:22;;;;;;;;;;;;;;;;;;5019589;28;20019;-88
2024/01/09 14:09:48;;;;;;;;;;;;;;;;;;5032172;28;19928;-86
2024/01/09 14:12:14;;;;;;;;;;;;;;;;;;5036680;28;19924;-90
2024/01/09 14:14:40;;;;;;;;;;;;;;;;;;5019414;28;19928;-91
2024/01/09 14:17:06;;;;;;;;;;;;;;;;;;5036467;28;20398;-93
2024/01/09 14:19:32;;;;;;;;;;;;;;;;;;5019349;28;20024;-90
2024/01/09 14:21:58;;;;;;;;;;;;;;;;;;5035487;28;19925;-74
2024/01/09 14:24:24;;;;;;;;;;;;;;;;;;5058702;28;20386;-74
2024/01/09 14:26:50;;;;;;;;;;;;;;;;;;5060866;28;20558;-73
2024/01/09 14:29:16;;;;;;;;;;;;;;;;;;5045309;28;19933;-91
2024/01/09 14:31:42;;;;;;;;;;;;;;;;;;5056550;28;19928;-91
2024/01/09 14:34:11;;;;;;;;;;;;;;;;;;5040528;28;19925;-91
2024/01/09 14:36:37;;;;;;;;;;;;;;;;;;5039489;28;20380;-90
2024/01/09 14:39:03;;;;;;;;;;;;;;;;;;5029301;28;19955;-91
2024/01/09 14:41:29;;;;;;;;;;;;;;;;;;5030995;28;19925;-90
2024/01/09 14:43:55;;;;;;;;;;;;;;;;;;5041674;28;20062;-74
2024/01/09 14:46:21;;;;;;;;;;;;;;;;;;5051691;28;20019;-74
2024/01/09 14:48:47;;;;;;;;;;;;;;;;;;5052115;28;19925;-80
2024/01/09 14:51:14;;;;;;;;;;;;;;;;;;5035650;28;20370;-79
2024/01/09 14:53:40;;;;;;;;;;;;;;;;;;5033705;28;19932;-83
2024/01/09 14:56:06;;;;;;;;;;;;;;;;;;5028392;28;19931;-84
2024/01/09 14:58:32;;;;;;;;;;;;;;;;;;5048993;28;20019;-86
2024/01/09 15:00:58;;;;;;;;;;;;;;;;;;5022330;28;19931;-86
2024/01/09 15:03:24;;;;;;;;;;;;;;;;;;5049934;28;19929;-85
2024/01/09 15:05:50;;;;;;;;;;;;;;;;;;5032776;28;19932;-86
2024/01/09 15:08:16;;;;;;;;;;;;;;;;;;5049224;28;19928;-88
2024/01/09 15:10:42;;;;;;;;;;;;;;;;;;5026542;28;19925;-88
2024/01/09 15:13:08;;;;;;;;;;;;;;;;;;5037228;28;19928;-90
2024/01/09 15:15:34;;;;;;;;;;;;;;;;;;5038645;28;19956;-89
2024/01/09 15:18:00;;;;;;;;;;;;;;;;;;5027749;28;19929;-88
2024/01/09 15:20:29;;;;;;;;;;;;;;;;;;5034976;28;19924;-89
2024/01/09 15:22:55;;;;;;;;;;;;;;;;;;5026993;28;19925;-89
2024/01/09 15:25:21;;;;;;;;;;;;;;;;;;5034016;28;19975;-87
2024/01/09 15:27:47;;;;;;;;;;;;;;;;;;5042309;28;19929;-91
2024/01/09 15:30:13;;;;;;;;;;;;;;;;;;5047648;28;20015;-92
2024/01/09 15:32:40;;;;;;;;;;;;;;;;;;5029278;28;19925;-87
2024/01/09 15:35:06;;;;;;;;;;;;;;;;;;5024916;28;19928;-90
2024/01/09 15:37:33;;;;;;;;;;;;;;;;;;5044684;28;20479;-92
2024/01/09 15:39:59;;;;;;;;;;;;;;;;;;5025255;28;19925;-92
2024/01/09 15:42:25;;;;;;;;;;;;;;;;;;5044742;28;19981;-91
2024/01/09 15:44:51;;;;;;;;;;;;;;;;;;5046750;28;20386;-91
2024/01/09 15:47:17;;;;;;;;;;;;;;;;;;5024628;28;20344;-91
2024/01/09 15:49:43;;;;;;;;;;;;;;;;;;5028363;28;20070;-92
2024/01/09 15:52:09;;;;;;;;;;;;;;;;;;5040545;28;19931;-93
2024/01/09 15:54:38;;;;;;;;;;;;;;;;;;5033612;28;20387;-92
2024/01/09 15:57:03;;;;;;;;;;;;;;;;;;5044605;28;20393;-88
2024/01/09 15:59:29;;;;;;;;;;;;;;;;;;5046953;28;19924;-92
2024/01/09 16:01:55;;;;;;;;;;;;;;;;;;5023431;28;20352;-92
2024/01/09 16:04:21;;;;;;;;;;;;;;;;;;5036772;28;19966;-85
2024/01/09 16:06:47;;;;;;;;;;;;;;;;;;5052765;28;20011;-89
2024/01/09 16:09:13;;;;;;;;;;;;;;;;;;5053019;28;19924;-90
2024/01/09 16:11:39;;;;;;;;;;;;;;;;;;5050338;28;19970;-93
2024/01/09 16:14:05;;;;;;;;;;;;;;;;;;5045643;28;19975;-93
2024/01/09 16:16:31;;;;;;;;;;;;;;;;;;5047639;28;19936;-93
2024/01/09 16:18:57;;;;;;;;;;;;;;;;;;5031156;28;19959;-90
2024/01/09 16:21:23;;;;;;;;;;;;;;;;;;5023787;28;20355;-89
2024/01/09 16:23:49;;;;;;;;;;;;;;;;;;5026401;28;19989;-88
2024/01/09 16:26:15;;;;;;;;;;;;;;;;;;5020858;28;20045;-89
2024/01/09 16:28:42;;;;;;;;;;;;;;;;;;5048230;28;19924;-88
2024/01/09 16:31:08;;;;;;;;;;;;;;;;;;5021540;28;19968;-90
2024/01/09 16:33:36;;;;;;;;;;;;;;;;;;5030831;28;20032;-92
2024/01/09 16:36:03;;;;;;;;;;;;;;;;;;5055041;28;19924;-88
2024/01/09 16:38:29;;;;;;;;;;;;;;;;;;5043478;28;20015;-91